createdAt,value
2022-08-14T00:02:24.503Z,8.27
2022-08-14T00:04:55.663Z,8.23
2022-08-14T00:07:25.189Z,8.27
2022-08-14T00:10:01.753Z,11.20
2022-08-14T00:12:53.439Z,8.87
2022-08-14T00:15:29.883Z,8.60
2022-08-14T00:18:06.768Z,8.43
2022-08-14T00:20:43.105Z,8.30
2022-08-14T00:23:17.185Z,8.67
2022-08-14T00:25:53.772Z,9.10
2022-08-14T00:28:29.030Z,8.47
2022-08-14T00:31:00.187Z,8.73
2022-08-14T00:33:51.933Z,8.00
2022-08-14T00:36:39.256Z,9.27
2022-08-14T00:39:09.537Z,9.50
2022-08-14T00:41:39.024Z,8.87
2022-08-14T00:44:08.104Z,7.83
2022-08-14T00:46:37.942Z,8.87
2022-08-14T00:49:08.335Z,9.00
2022-08-14T00:51:41.122Z,8.43
2022-08-14T00:54:11.209Z,7.50
2022-08-14T00:56:54.754Z,8.27
2022-08-14T00:59:24.965Z,9.13
2022-08-14T01:02:40.313Z,9.20
2022-08-14T01:05:23.787Z,8.50
2022-08-14T01:07:56.976Z,9.27
2022-08-14T01:10:50.318Z,9.67
2022-08-14T01:13:23.051Z,9.20
2022-08-14T01:15:58.676Z,8.70
2022-08-14T01:18:53.434Z,9.13
2022-08-14T01:21:34.944Z,8.87
2022-08-14T01:24:09.789Z,10.13
2022-08-14T01:26:39.529Z,9.73
2022-08-14T01:29:10.362Z,10.67
2022-08-14T01:31:46.113Z,11.27
2022-08-14T01:35:17.637Z,9.63
2022-08-14T01:37:10.973Z,9.37
2022-08-14T01:39:39.725Z,9.33
2022-08-14T01:42:09.296Z,10.00
2022-08-14T01:44:57.893Z,9.67
2022-08-14T01:47:27.682Z,9.67
2022-08-14T01:50:07.215Z,10.20
2022-08-14T01:52:58.699Z,9.70
2022-08-14T01:55:29.485Z,11.07
2022-08-14T01:58:18.503Z,9.43
2022-08-14T02:00:48.096Z,10.47
2022-08-14T02:03:17.696Z,9.97
2022-08-14T02:05:46.403Z,10.07
2022-08-14T02:08:22.376Z,10.47
2022-08-14T02:11:24.173Z,11.77
2022-08-14T02:13:59.944Z,10.30
2022-08-14T02:16:39.554Z,10.53
2022-08-14T02:19:10.306Z,10.73
2022-08-14T02:21:47.042Z,10.60
2022-08-14T02:24:39.552Z,10.33
2022-08-14T02:28:22.295Z,11.13
2022-08-14T02:30:02.169Z,11.20
2022-08-14T02:32:36.919Z,10.70
2022-08-14T02:35:10.513Z,11.03
2022-08-14T02:37:47.628Z,11.60
2022-08-14T02:40:19.553Z,11.20
2022-08-14T02:42:54.534Z,10.40
2022-08-14T02:45:33.238Z,11.13
2022-08-14T02:48:10.144Z,11.17
2022-08-14T02:50:56.415Z,11.30
2022-08-14T02:53:29.637Z,11.53
2022-08-14T02:56:02.967Z,10.73
2022-08-14T02:58:50.503Z,11.23
2022-08-14T03:01:23.994Z,10.30
2022-08-14T03:03:54.942Z,10.77
2022-08-14T03:06:35.090Z,11.13
2022-08-14T03:09:15.053Z,11.90
2022-08-14T03:11:45.642Z,10.87
2022-08-14T03:14:17.910Z,11.87
2022-08-14T03:16:49.331Z,11.33
2022-08-14T03:19:19.835Z,12.07
2022-08-14T03:21:53.004Z,11.07
2022-08-14T03:24:23.180Z,11.57
2022-08-14T03:26:57.869Z,10.50
2022-08-14T03:29:29.560Z,11.37
2022-08-14T03:31:59.712Z,11.57
2022-08-14T03:34:47.747Z,11.93
2022-08-14T03:38:01.873Z,11.60
2022-08-14T03:40:06.840Z,11.97
2022-08-14T03:42:41.381Z,11.70
2022-08-14T03:45:19.081Z,11.70
2022-08-14T03:48:01.890Z,11.30
2022-08-14T03:50:32.573Z,11.40
2022-08-14T03:53:02.573Z,11.87
2022-08-14T03:55:32.051Z,12.47
2022-08-14T03:58:02.613Z,13.47
2022-08-14T04:00:43.739Z,13.27
2022-08-14T04:03:19.632Z,11.97
2022-08-14T04:05:52.566Z,12.07
2022-08-14T04:08:30.038Z,12.97
2022-08-14T04:11:01.662Z,13.47
2022-08-14T04:13:34.484Z,12.77
2022-08-14T04:16:04.741Z,13.37
2022-08-14T04:18:34.205Z,13.57
2022-08-14T04:21:03.967Z,13.17
2022-08-14T04:23:33.861Z,13.03
2022-08-14T04:26:04.045Z,13.30
2022-08-14T04:29:07.632Z,13.00
2022-08-14T04:32:56.493Z,13.23
2022-08-14T04:34:17.196Z,12.70
2022-08-14T04:37:07.446Z,12.63
2022-08-14T04:39:56.913Z,12.90
2022-08-14T04:42:47.080Z,13.00
2022-08-14T04:45:21.985Z,12.40
2022-08-14T04:48:10.117Z,12.80
2022-08-14T04:50:44.636Z,13.47
2022-08-14T04:53:16.252Z,13.37
2022-08-14T04:55:51.465Z,12.60
2022-08-14T04:58:32.938Z,13.37
2022-08-14T05:01:12.741Z,12.97
2022-08-14T05:03:46.758Z,13.37
2022-08-14T05:06:37.945Z,12.27
2022-08-14T05:09:04.847Z,11.90
2022-08-14T05:11:36.560Z,12.80
2022-08-14T05:14:42.662Z,12.33
2022-08-14T05:17:01.611Z,11.87
2022-08-14T05:19:32.519Z,10.40
2022-08-14T05:22:17.034Z,10.53
2022-08-14T05:24:50.518Z,11.27
2022-08-14T05:27:23.078Z,10.20
2022-08-14T05:29:55.319Z,9.93
2022-08-14T05:32:27.278Z,9.07
2022-08-14T05:34:58.723Z,8.90
2022-08-14T05:37:29.946Z,9.60
2022-08-14T05:40:01.001Z,9.77
2022-08-14T05:42:34.014Z,9.37
2022-08-14T05:45:04.466Z,9.33
2022-08-14T05:47:39.683Z,9.07
2022-08-14T05:50:19.294Z,9.27
2022-08-14T05:52:51.062Z,8.57
2022-08-14T05:55:22.558Z,8.90
2022-08-14T05:57:53.535Z,8.87
2022-08-14T06:00:25.034Z,8.40
2022-08-14T06:03:04.195Z,8.97
2022-08-14T06:05:38.897Z,10.37
2022-08-14T06:08:08.636Z,9.93
2022-08-14T06:10:50.885Z,9.57
2022-08-14T06:13:20.216Z,9.23
2022-08-14T06:15:50.983Z,10.17
2022-08-14T06:18:25.198Z,9.83
2022-08-14T06:20:54.465Z,9.67
2022-08-14T06:23:25.940Z,10.27
2022-08-14T06:25:56.425Z,9.30
2022-08-14T06:28:28.376Z,9.23
2022-08-14T06:30:57.591Z,9.70
2022-08-14T06:33:45.796Z,9.03
2022-08-14T06:36:20.215Z,8.73
2022-08-14T06:38:50.243Z,9.40
2022-08-14T06:41:20.702Z,8.70
2022-08-14T06:44:00.441Z,9.23
2022-08-14T06:46:34.249Z,8.77
2022-08-14T06:49:07.121Z,8.87
2022-08-14T06:51:44.457Z,8.90
2022-08-14T06:54:14.162Z,8.47
2022-08-14T06:56:54.412Z,9.33
2022-08-14T06:59:25.767Z,8.70
2022-08-14T07:02:13.504Z,8.60
2022-08-14T07:05:05.667Z,8.50
2022-08-14T07:07:39.498Z,7.57
2022-08-14T07:10:13.298Z,7.63
2022-08-14T07:13:01.387Z,8.00
2022-08-14T07:15:33.702Z,8.10
2022-08-14T07:18:04.877Z,8.23
2022-08-14T07:20:39.214Z,8.60
2022-08-14T07:23:10.979Z,7.93
2022-08-14T07:25:48.195Z,7.97
2022-08-14T07:28:21.257Z,7.83
2022-08-14T07:30:51.097Z,7.87
2022-08-14T07:33:28.967Z,7.80
2022-08-14T07:36:01.786Z,8.20
2022-08-14T07:38:36.203Z,8.53
2022-08-14T07:41:14.522Z,8.43
2022-08-14T07:43:53.032Z,7.90
2022-08-14T07:46:29.335Z,7.40
2022-08-14T07:48:59.913Z,8.70
2022-08-14T07:51:34.531Z,7.83
2022-08-14T07:54:11.287Z,7.60
2022-08-14T07:56:47.716Z,7.20
2022-08-14T07:59:18.868Z,7.00
2022-08-14T08:01:48.283Z,6.87
2022-08-14T08:04:25.181Z,6.57
2022-08-14T08:06:56.976Z,6.67
2022-08-14T08:09:32.420Z,6.87
2022-08-14T08:12:04.623Z,6.30
2022-08-14T08:14:56.165Z,6.30
2022-08-14T08:17:25.054Z,6.53
2022-08-14T08:19:53.684Z,5.90
2022-08-14T08:22:27.417Z,6.67
2022-08-14T08:25:00.973Z,6.13
2022-08-14T08:27:29.538Z,5.67
2022-08-14T08:30:09.990Z,5.30
2022-08-14T08:32:43.132Z,5.77
2022-08-14T08:35:12.946Z,5.53
2022-08-14T08:37:43.757Z,6.00
2022-08-14T08:40:20.731Z,5.67
2022-08-14T08:42:52.145Z,5.50
2022-08-14T08:45:23.738Z,5.70
2022-08-14T08:47:56.316Z,4.93
2022-08-14T08:50:31.817Z,5.97
2022-08-14T08:53:02.967Z,5.17
2022-08-14T08:55:34.466Z,5.33
2022-08-14T08:58:16.188Z,5.40
2022-08-14T09:00:50.106Z,5.30
2022-08-14T09:03:27.555Z,5.17
2022-08-14T09:05:57.932Z,5.20
2022-08-14T09:08:32.695Z,5.07
2022-08-14T09:11:19.947Z,5.07
2022-08-14T09:13:51.961Z,4.70
2022-08-14T09:16:25.445Z,5.83
2022-08-14T09:18:55.368Z,5.33
2022-08-14T09:21:24.882Z,5.60
2022-08-14T09:24:27.985Z,5.63
2022-08-14T09:26:50.227Z,5.60
2022-08-14T09:29:23.071Z,5.33
2022-08-14T09:31:57.508Z,5.53
2022-08-14T09:34:47.423Z,6.40
2022-08-14T09:37:35.527Z,5.90
2022-08-14T09:40:20.587Z,6.27
2022-08-14T09:42:57.851Z,6.03
2022-08-14T09:45:39.678Z,5.33
2022-08-14T09:48:17.998Z,5.60
2022-08-14T09:50:48.406Z,5.40
2022-08-14T09:54:17.848Z,5.60
2022-08-14T09:56:31.024Z,5.37
2022-08-14T09:59:01.387Z,4.90
2022-08-14T10:01:40.480Z,5.67
2022-08-14T10:04:36.691Z,5.73
2022-08-14T10:07:10.376Z,5.00
2022-08-14T10:10:00.220Z,5.67
2022-08-14T10:12:54.914Z,5.90
2022-08-14T10:15:29.818Z,5.77
2022-08-14T10:18:13.508Z,5.87
2022-08-14T10:20:55.606Z,5.57
2022-08-14T10:23:26.243Z,5.93
2022-08-14T10:25:59.267Z,6.13
2022-08-14T10:29:17.696Z,5.90
2022-08-14T10:31:40.481Z,5.37
2022-08-14T10:34:15.516Z,5.13
2022-08-14T10:36:48.109Z,5.43
2022-08-14T10:39:20.447Z,5.47
2022-08-14T10:41:54.145Z,5.33
2022-08-14T10:44:29.837Z,5.90
2022-08-14T10:47:40.959Z,5.53
2022-08-14T10:49:59.797Z,6.00
2022-08-14T10:52:33.962Z,6.70
2022-08-14T10:55:14.586Z,6.50
2022-08-14T10:57:51.785Z,6.20
2022-08-14T11:00:29.813Z,6.00
2022-08-14T11:03:09.924Z,6.27
2022-08-14T11:05:43.536Z,6.27
2022-08-14T11:08:14.533Z,5.83
2022-08-14T11:10:48.327Z,6.20
2022-08-14T11:13:24.151Z,6.00
2022-08-14T11:15:56.482Z,6.03
2022-08-14T11:18:30.262Z,6.67
2022-08-14T11:21:05.546Z,6.27
2022-08-14T11:23:38.170Z,5.57
2022-08-14T11:26:10.349Z,5.30
2022-08-14T11:28:47.543Z,5.90
2022-08-14T11:31:22.228Z,6.70
2022-08-14T11:33:58.409Z,6.07
2022-08-14T11:37:02.048Z,6.30
2022-08-14T11:39:33.421Z,6.47
2022-08-14T11:42:55.259Z,6.20
2022-08-14T11:44:56.666Z,5.70
2022-08-14T11:47:35.174Z,6.00
2022-08-14T11:50:24.908Z,5.70
2022-08-14T11:53:04.401Z,6.87
2022-08-14T11:55:38.047Z,6.67
2022-08-14T11:58:10.448Z,6.17
2022-08-14T12:00:48.578Z,6.03
2022-08-14T12:03:23.294Z,7.43
2022-08-14T12:06:06.196Z,9.93
2022-08-14T12:08:50.951Z,6.17
2022-08-14T12:11:22.096Z,5.80
2022-08-14T12:13:56.065Z,6.17
2022-08-14T12:16:26.376Z,6.20
2022-08-14T12:19:00.117Z,6.27
2022-08-14T12:21:32.134Z,6.07
2022-08-14T12:24:05.705Z,5.40
2022-08-14T12:26:40.687Z,10.27
2022-08-14T12:29:11.194Z,6.90
2022-08-14T12:31:44.500Z,6.30
2022-08-14T12:34:20.511Z,5.47
2022-08-14T12:36:51.656Z,5.80
2022-08-14T12:39:23.901Z,5.07
2022-08-14T12:41:57.480Z,6.37
2022-08-14T12:44:36.637Z,6.00
2022-08-14T12:47:13.446Z,6.37
2022-08-14T12:49:53.010Z,5.90
2022-08-14T12:52:30.667Z,6.23
2022-08-14T12:55:17.058Z,5.47
2022-08-14T12:57:53.248Z,6.23
2022-08-14T13:00:24.315Z,5.80
2022-08-14T13:02:55.521Z,5.80
2022-08-14T13:05:29.404Z,5.80
2022-08-14T13:07:59.194Z,6.23
2022-08-14T13:10:47.360Z,5.87
2022-08-14T13:13:19.140Z,5.60
2022-08-14T13:15:56.187Z,5.90
2022-08-14T13:18:28.158Z,5.67
2022-08-14T13:21:02.292Z,6.27
2022-08-14T13:23:36.077Z,5.93
2022-08-14T13:26:05.165Z,5.80
2022-08-14T13:28:41.255Z,6.17
2022-08-14T13:31:30.222Z,6.23
2022-08-14T13:34:01.239Z,6.00
2022-08-14T13:36:51.755Z,5.80
2022-08-14T13:39:21.630Z,5.60
2022-08-14T13:41:55.738Z,6.00
2022-08-14T13:44:28.922Z,6.03
2022-08-14T13:46:58.814Z,6.00
2022-08-14T13:49:29.021Z,7.13
2022-08-14T13:52:00.266Z,6.27
2022-08-14T13:54:32.908Z,6.30
2022-08-14T13:57:04.040Z,6.10
2022-08-14T13:59:37.913Z,6.53
2022-08-14T14:02:09.018Z,5.30
2022-08-14T14:04:41.322Z,6.30
2022-08-14T14:07:14.394Z,5.53
2022-08-14T14:09:52.985Z,5.77
2022-08-14T14:12:38.089Z,5.77
2022-08-14T14:15:12.638Z,5.90
2022-08-14T14:17:44.094Z,6.07
2022-08-14T14:20:34.350Z,5.80
2022-08-14T14:23:09.608Z,13.97
2022-08-14T14:25:48.019Z,6.00
2022-08-14T14:28:24.251Z,6.30
2022-08-14T14:30:57.410Z,7.30
2022-08-14T14:33:47.821Z,5.17
2022-08-14T14:36:21.267Z,7.27
2022-08-14T14:38:56.346Z,6.10
2022-08-14T14:41:27.239Z,6.20
2022-08-14T14:44:09.190Z,6.03
2022-08-14T14:46:41.572Z,6.10
2022-08-14T14:49:14.997Z,8.13
2022-08-14T14:51:46.871Z,5.67
2022-08-14T14:54:31.039Z,6.80
2022-08-14T14:57:02.483Z,5.97
2022-08-14T14:59:33.455Z,7.40
2022-08-14T15:02:07.995Z,6.43
2022-08-14T15:04:38.596Z,5.50
2022-08-14T15:07:12.503Z,5.43
2022-08-14T15:09:43.975Z,5.07
2022-08-14T15:12:34.205Z,5.30
2022-08-14T15:15:08.565Z,5.10
2022-08-14T15:17:41.746Z,5.00
2022-08-14T15:20:17.376Z,5.13
2022-08-14T15:22:58.556Z,5.20
2022-08-14T15:25:32.101Z,5.80
2022-08-14T15:28:01.176Z,4.80
2022-08-14T15:30:32.534Z,5.10
2022-08-14T15:33:01.458Z,5.23
2022-08-14T15:35:33.990Z,5.20
2022-08-14T15:38:08.215Z,5.60
2022-08-14T15:40:41.143Z,5.17
2022-08-14T15:43:11.137Z,5.33
2022-08-14T15:45:42.057Z,5.83
2022-08-14T15:48:15.765Z,4.80
2022-08-14T15:50:51.671Z,6.30
2022-08-14T15:53:23.787Z,5.70
2022-08-14T15:55:55.053Z,5.70
2022-08-14T15:58:24.316Z,5.60
2022-08-14T16:01:13.115Z,5.30
2022-08-14T16:03:46.354Z,5.30
2022-08-14T16:06:18.169Z,5.53
2022-08-14T16:08:50.345Z,5.80
2022-08-14T16:11:28.851Z,5.73
2022-08-14T16:14:01.912Z,5.20
2022-08-14T16:16:50.373Z,5.23
2022-08-14T16:19:23.611Z,4.30
2022-08-14T16:22:02.164Z,4.50
2022-08-14T16:24:59.677Z,4.33
2022-08-14T16:27:39.394Z,4.50
2022-08-14T16:30:24.391Z,5.00
2022-08-14T16:32:56.386Z,5.40
2022-08-14T16:35:42.194Z,4.93
2022-08-14T16:38:35.714Z,5.00
2022-08-14T16:41:22.916Z,5.23
2022-08-14T16:43:58.850Z,4.67
2022-08-14T16:46:28.885Z,20.67
2022-08-14T16:48:58.720Z,14.83
2022-08-14T16:51:28.131Z,5.93
2022-08-14T16:53:59.126Z,4.67
2022-08-14T16:56:35.010Z,4.53
2022-08-14T16:59:09.605Z,4.93
2022-08-14T17:01:42.305Z,4.90
2022-08-14T17:04:14.977Z,5.00
2022-08-14T17:06:55.496Z,5.27
2022-08-14T17:09:35.691Z,5.10
2022-08-14T17:12:08.009Z,5.40
2022-08-14T17:14:53.144Z,5.40
2022-08-14T17:17:23.085Z,5.57
2022-08-14T17:19:56.060Z,5.43
2022-08-14T17:22:24.964Z,4.83
2022-08-14T17:25:03.979Z,4.87
2022-08-14T17:27:32.665Z,4.83
2022-08-14T17:30:03.505Z,4.77
2022-08-14T17:32:55.547Z,4.97
2022-08-14T17:35:57.540Z,4.80
2022-08-14T17:38:38.475Z,4.73
2022-08-14T17:41:27.126Z,6.83
2022-08-14T17:44:21.509Z,3.60
2022-08-14T17:46:55.361Z,3.90
2022-08-14T17:49:27.521Z,3.80
2022-08-14T17:52:07.615Z,4.03
2022-08-14T17:54:39.546Z,3.50
2022-08-14T17:57:15.625Z,4.37
2022-08-14T17:59:48.554Z,4.00
2022-08-14T18:02:22.725Z,3.63
2022-08-14T18:05:03.247Z,3.53
2022-08-14T18:08:00.144Z,3.70
2022-08-14T18:10:52.689Z,3.40
2022-08-14T18:13:10.583Z,3.10
2022-08-14T18:15:41.229Z,3.40
2022-08-14T18:18:12.344Z,3.10
2022-08-14T18:21:39.634Z,3.30
2022-08-14T18:23:33.293Z,3.53
2022-08-14T18:26:37.667Z,3.83
2022-08-14T18:29:01.905Z,3.60
2022-08-14T18:31:43.921Z,3.77
2022-08-14T18:34:32.038Z,3.27
2022-08-14T18:37:14.315Z,3.50
2022-08-14T18:40:02.082Z,3.07
2022-08-14T18:42:50.435Z,3.70
2022-08-14T18:45:28.862Z,3.17
2022-08-14T18:48:33.201Z,3.27
2022-08-14T18:51:19.205Z,3.40
2022-08-14T18:53:59.431Z,3.30
2022-08-14T18:56:58.832Z,3.63
2022-08-14T18:59:37.356Z,3.37
2022-08-14T19:02:43.476Z,3.90
2022-08-14T19:05:12.525Z,3.77
2022-08-14T19:07:48.205Z,4.47
2022-08-14T19:10:37.299Z,3.00
2022-08-14T19:13:11.562Z,3.77
2022-08-14T19:15:44.058Z,4.23
2022-08-14T19:18:27.758Z,3.80
2022-08-14T19:20:58.627Z,3.20
2022-08-14T19:23:42.080Z,3.30
2022-08-14T19:26:35.688Z,3.67
2022-08-14T19:29:38.135Z,3.50
2022-08-14T19:32:40.377Z,3.67
2022-08-14T19:35:55.178Z,3.63
2022-08-14T19:38:57.354Z,4.10
2022-08-14T19:41:29.825Z,3.40
2022-08-14T19:44:12.397Z,4.07
2022-08-14T19:47:00.017Z,8.30
2022-08-14T19:50:08.292Z,4.03
2022-08-14T19:52:29.848Z,3.67
2022-08-14T19:55:16.477Z,4.13
2022-08-14T19:57:51.975Z,4.07
2022-08-14T20:00:29.440Z,6.43
2022-08-14T20:03:11.256Z,4.53
2022-08-14T20:05:46.034Z,4.60
2022-08-14T20:11:02.381Z,4.30
2022-08-14T20:11:20.662Z,4.73
2022-08-14T20:14:02.089Z,4.73
2022-08-14T20:16:40.298Z,5.07
2022-08-14T20:19:17.909Z,5.03
2022-08-14T20:21:58.279Z,5.17
2022-08-14T20:24:41.454Z,4.57
2022-08-14T20:27:33.417Z,4.90
2022-08-14T20:33:00.385Z,5.43
2022-08-14T20:35:35.312Z,4.93
2022-08-14T20:38:31.532Z,5.10
2022-08-14T20:40:56.737Z,6.00
2022-08-14T20:43:45.877Z,5.40
2022-08-14T20:46:16.233Z,5.83
2022-08-14T20:48:58.506Z,5.60
2022-08-14T20:51:37.075Z,5.60
2022-08-14T20:54:08.017Z,5.50
2022-08-14T20:56:38.620Z,5.90
2022-08-14T20:59:19.548Z,5.60
2022-08-14T21:01:55.155Z,6.13
2022-08-14T21:04:27.771Z,5.37
2022-08-14T21:07:24.720Z,5.50
2022-08-14T21:10:05.645Z,5.10
2022-08-14T21:12:36.171Z,5.77
2022-08-14T21:15:10.232Z,5.50
2022-08-14T21:17:43.330Z,5.07
2022-08-14T21:20:25.953Z,4.97
2022-08-14T21:23:00.352Z,5.07
2022-08-14T21:25:31.436Z,4.43
2022-08-14T21:28:02.008Z,5.67
2022-08-14T21:30:46.613Z,5.70
2022-08-14T21:33:21.668Z,5.57
2022-08-14T21:35:55.692Z,7.10
2022-08-14T21:38:34.210Z,5.17
2022-08-14T21:41:42.735Z,5.30
2022-08-14T21:44:18.299Z,4.93
2022-08-14T21:46:53.333Z,5.20
2022-08-14T21:49:33.878Z,5.87
2022-08-14T21:52:49.238Z,5.77
2022-08-14T21:55:00.594Z,5.40
2022-08-14T21:58:45.922Z,5.13
2022-08-14T22:00:35.032Z,5.33
2022-08-14T22:03:06.380Z,5.57
2022-08-14T22:05:40.371Z,5.40
2022-08-14T22:08:12.057Z,5.67
2022-08-14T22:10:42.612Z,5.83
2022-08-14T22:13:13.609Z,5.87
2022-08-14T22:15:49.470Z,5.40
2022-08-14T22:18:20.371Z,5.97
2022-08-14T22:20:53.750Z,5.90
2022-08-14T22:23:25.887Z,5.47
2022-08-14T22:25:54.908Z,6.00
2022-08-14T22:28:25.697Z,5.67
2022-08-14T22:30:54.898Z,6.43
2022-08-14T22:33:31.047Z,5.93
2022-08-14T22:36:25.579Z,5.80
2022-08-14T22:38:54.599Z,5.93
2022-08-14T22:41:27.472Z,6.27
2022-08-14T22:44:04.669Z,6.50
2022-08-14T22:46:35.359Z,5.27
2022-08-14T22:49:16.687Z,6.00
2022-08-14T22:51:54.608Z,6.23
2022-08-14T22:54:52.653Z,6.00
2022-08-14T22:57:14.269Z,5.90
2022-08-14T22:59:43.326Z,6.00
2022-08-14T23:02:14.888Z,6.27
2022-08-14T23:04:54.241Z,6.20
2022-08-14T23:07:26.188Z,6.13
2022-08-14T23:10:33.433Z,6.30
2022-08-14T23:13:03.903Z,5.80
2022-08-14T23:15:33.851Z,6.37
2022-08-14T23:18:03.344Z,5.90
2022-08-14T23:20:36.191Z,6.20
2022-08-14T23:23:13.196Z,6.70
2022-08-14T23:25:58.822Z,6.40
2022-08-14T23:28:33.603Z,6.07
2022-08-14T23:31:34.967Z,6.97
2022-08-14T23:34:06.713Z,6.30
2022-08-14T23:36:53.199Z,6.87
2022-08-14T23:39:30.074Z,6.90
2022-08-14T23:42:02.285Z,7.07
2022-08-14T23:44:35.623Z,7.00
2022-08-14T23:47:12.166Z,7.00
2022-08-14T23:50:03.906Z,6.20
2022-08-14T23:52:50.819Z,7.17
2022-08-14T23:55:30.787Z,6.87
2022-08-14T23:58:01.289Z,7.23
